Time;durP1;ratioP1;P1;durP2;ratioP2;P2;SDS_P1;SDS_P2;PMS_P1;PMS_P2;Temp;Humidity;BMP_temperature;BMP_pressure;BME280_temperature;BME280_humidity;BME280_pressure;Samples;Min_cycle;Max_cycle;Signal;HPM_P1;HPM_P2
2022/07/08 00:01:42;;;;;;;;;;;;;;;;;;5055070;28;19916;-30
2022/07/08 00:04:08;;;;;;;;;;;;;;;;;;5055254;28;19913;-29
2022/07/08 00:06:34;;;;;;;;;;;;;;;;;;5054958;28;19956;-30
2022/07/08 00:09:00;;;;;;;;;;;;;;;;;;5055234;28;20249;-29
2022/07/08 00:11:26;;;;;;;;;;;;;;;;;;5054928;28;20339;-29
2022/07/08 00:13:52;;;;;;;;;;;;;;;;;;5054854;28;19909;-29
2022/07/08 00:16:18;;;;;;;;;;;;;;;;;;5055220;28;19909;-30
2022/07/08 00:18:44;;;;;;;;;;;;;;;;;;5054848;28;19959;-29
2022/07/08 00:21:10;;;;;;;;;;;;;;;;;;5054882;28;19932;-30
2022/07/08 00:23:36;;;;;;;;;;;;;;;;;;5054550;28;19932;-30
2022/07/08 00:26:02;;;;;;;;;;;;;;;;;;5055066;28;19920;-30
2022/07/08 00:28:28;;;;;;;;;;;;;;;;;;5054829;28;19941;-29
2022/07/08 00:30:54;;;;;;;;;;;;;;;;;;5054736;28;20260;-29
2022/07/08 00:33:20;;;;;;;;;;;;;;;;;;5054696;28;19994;-29
2022/07/08 00:35:46;;;;;;;;;;;;;;;;;;5053767;28;20287;-30
2022/07/08 00:38:12;;;;;;;;;;;;;;;;;;5054987;28;20023;-30
2022/07/08 00:40:38;;;;;;;;;;;;;;;;;;5057938;28;20238;-30
2022/07/08 00:43:04;;;;;;;;;;;;;;;;;;5058829;28;19920;-30
2022/07/08 00:45:31;;;;;;;;;;;;;;;;;;5058567;28;19959;-29
2022/07/08 00:47:57;;;;;;;;;;;;;;;;;;5058580;28;19917;-29
2022/07/08 00:50:22;;;;;;;;;;;;;;;;;;5058479;28;19943;-30
2022/07/08 00:52:49;;;;;;;;;;;;;;;;;;5058448;28;19952;-29
2022/07/08 00:55:14;;;;;;;;;;;;;;;;;;5058637;28;19913;-29
2022/07/08 00:57:40;;;;;;;;;;;;;;;;;;5058321;28;19923;-30
2022/07/08 01:00:06;;;;;;;;;;;;;;;;;;5058308;28;19913;-29
2022/07/08 01:02:32;;;;;;;;;;;;;;;;;;5058485;28;19908;-30
2022/07/08 01:04:58;;;;;;;;;;;;;;;;;;5058224;28;19920;-29
2022/07/08 01:07:24;;;;;;;;;;;;;;;;;;5058747;28;19916;-29
2022/07/08 01:09:50;;;;;;;;;;;;;;;;;;5058183;28;20347;-29
2022/07/08 01:12:16;;;;;;;;;;;;;;;;;;5058324;28;19923;-29
2022/07/08 01:14:42;;;;;;;;;;;;;;;;;;5058051;28;19913;-29
2022/07/08 01:17:08;;;;;;;;;;;;;;;;;;5058002;28;19916;-29
2022/07/08 01:19:34;;;;;;;;;;;;;;;;;;5058181;28;20244;-29
2022/07/08 01:22:00;;;;;;;;;;;;;;;;;;5057840;28;19913;-29
2022/07/08 01:24:27;;;;;;;;;;;;;;;;;;5057736;28;19971;-30
2022/07/08 01:26:52;;;;;;;;;;;;;;;;;;5057833;28;20007;-30
2022/07/08 01:29:18;;;;;;;;;;;;;;;;;;5057766;28;19984;-29
2022/07/08 01:31:44;;;;;;;;;;;;;;;;;;5057779;28;19994;-30
2022/07/08 01:34:10;;;;;;;;;;;;;;;;;;5057613;28;20005;-30
2022/07/08 01:36:36;;;;;;;;;;;;;;;;;;5057674;28;19909;-30
2022/07/08 01:39:02;;;;;;;;;;;;;;;;;;5057515;28;19916;-30
2022/07/08 01:41:28;;;;;;;;;;;;;;;;;;5057550;28;20004;-30
2022/07/08 01:43:54;;;;;;;;;;;;;;;;;;5057409;28;19913;-29
2022/07/08 01:46:20;;;;;;;;;;;;;;;;;;5057723;28;20326;-30
2022/07/08 01:48:46;;;;;;;;;;;;;;;;;;5057393;28;19919;-30
2022/07/08 01:51:12;;;;;;;;;;;;;;;;;;5056363;28;20371;-30
2022/07/08 01:53:38;;;;;;;;;;;;;;;;;;5057259;28;19974;-29
2022/07/08 01:56:04;;;;;;;;;;;;;;;;;;5057567;28;19912;-29
2022/07/08 01:58:30;;;;;;;;;;;;;;;;;;5057468;28;19921;-29
2022/07/08 02:00:56;;;;;;;;;;;;;;;;;;5057162;28;19913;-30
2022/07/08 02:03:22;;;;;;;;;;;;;;;;;;5057363;28;19909;-29
2022/07/08 02:05:48;;;;;;;;;;;;;;;;;;5057088;28;20370;-29
2022/07/08 02:08:14;;;;;;;;;;;;;;;;;;5057075;28;19973;-29
2022/07/08 02:13:25;;;;;;;;;;;;;;;;;;5057270;28;20051;-30
2022/07/08 02:15:51;;;;;;;;;;;;;;;;;;5056998;28;19983;-29
2022/07/08 02:18:17;;;;;;;;;;;;;;;;;;5057069;28;19920;-30
2022/07/08 02:20:43;;;;;;;;;;;;;;;;;;5057088;28;19923;-29
2022/07/08 02:23:09;;;;;;;;;;;;;;;;;;5056735;28;20367;-30
2022/07/08 02:25:35;;;;;;;;;;;;;;;;;;5056957;28;19987;-30
2022/07/08 02:28:01;;;;;;;;;;;;;;;;;;5056732;28;19913;-29
2022/07/08 02:30:27;;;;;;;;;;;;;;;;;;5056638;28;19920;-30
2022/07/08 02:32:53;;;;;;;;;;;;;;;;;;5055544;28;19913;-29
2022/07/08 02:35:19;;;;;;;;;;;;;;;;;;5056826;28;19936;-30
2022/07/08 02:37:45;;;;;;;;;;;;;;;;;;5056683;28;20007;-30
2022/07/08 02:40:11;;;;;;;;;;;;;;;;;;5056485;28;19913;-29
2022/07/08 02:42:37;;;;;;;;;;;;;;;;;;5056323;28;19913;-29
2022/07/08 02:45:03;;;;;;;;;;;;;;;;;;5056348;28;19915;-29
2022/07/08 02:47:29;;;;;;;;;;;;;;;;;;5056302;28;19912;-29
2022/07/08 02:49:55;;;;;;;;;;;;;;;;;;5056548;28;19913;-29
2022/07/08 02:52:21;;;;;;;;;;;;;;;;;;5056131;28;19924;-29
2022/07/08 02:54:47;;;;;;;;;;;;;;;;;;5056187;28;20232;-29
2022/07/08 02:57:13;;;;;;;;;;;;;;;;;;5056177;28;19921;-29
2022/07/08 02:59:39;;;;;;;;;;;;;;;;;;5055999;28;19927;-30
2022/07/08 03:02:05;;;;;;;;;;;;;;;;;;5055841;28;19917;-29
2022/07/08 03:04:31;;;;;;;;;;;;;;;;;;5055970;28;19917;-29
2022/07/08 03:06:57;;;;;;;;;;;;;;;;;;5055944;28;19909;-29
2022/07/08 03:09:23;;;;;;;;;;;;;;;;;;5055951;28;20017;-29
2022/07/08 03:11:49;;;;;;;;;;;;;;;;;;5055832;28;19913;-30
2022/07/08 03:14:15;;;;;;;;;;;;;;;;;;5055775;28;19968;-30
2022/07/08 03:16:41;;;;;;;;;;;;;;;;;;5054814;28;20407;-30
2022/07/08 03:19:07;;;;;;;;;;;;;;;;;;5055922;28;19999;-30
2022/07/08 03:21:33;;;;;;;;;;;;;;;;;;5055681;28;19996;-29
2022/07/08 03:23:59;;;;;;;;;;;;;;;;;;5055336;28;20390;-30
2022/07/08 03:26:25;;;;;;;;;;;;;;;;;;5055571;28;19913;-29
2022/07/08 03:28:51;;;;;;;;;;;;;;;;;;5055533;28;20007;-29
2022/07/08 03:31:17;;;;;;;;;;;;;;;;;;5055484;28;19992;-29
2022/07/08 03:33:43;;;;;;;;;;;;;;;;;;5055403;28;19996;-29
2022/07/08 03:36:09;;;;;;;;;;;;;;;;;;5055456;28;20003;-30
2022/07/08 03:41:27;;;;;;;;;;;;;;;;;;5055447;28;19970;-29
2022/07/08 03:43:53;;;;;;;;;;;;;;;;;;5055157;28;19912;-29
2022/07/08 03:46:19;;;;;;;;;;;;;;;;;;5054293;28;20414;-30
2022/07/08 03:48:45;;;;;;;;;;;;;;;;;;5055205;28;20012;-29
2022/07/08 03:51:11;;;;;;;;;;;;;;;;;;5055345;28;19952;-29
2022/07/08 03:53:37;;;;;;;;;;;;;;;;;;5054984;28;19920;-30
2022/07/08 03:56:03;;;;;;;;;;;;;;;;;;5055091;28;19909;-30
2022/07/08 03:58:29;;;;;;;;;;;;;;;;;;5054990;28;19916;-30
2022/07/08 04:00:55;;;;;;;;;;;;;;;;;;5055090;28;19909;-30
2022/07/08 04:03:21;;;;;;;;;;;;;;;;;;5055259;28;20335;-29
2022/07/08 04:05:47;;;;;;;;;;;;;;;;;;5055049;28;19912;-30
2022/07/08 04:08:13;;;;;;;;;;;;;;;;;;5055133;28;20355;-29
2022/07/08 04:10:39;;;;;;;;;;;;;;;;;;5054733;28;20002;-29
2022/07/08 04:13:05;;;;;;;;;;;;;;;;;;5055087;28;20385;-29
2022/07/08 04:15:31;;;;;;;;;;;;;;;;;;5054662;28;20023;-28
2022/07/08 04:17:57;;;;;;;;;;;;;;;;;;5054738;28;20099;-29
2022/07/08 04:20:23;;;;;;;;;;;;;;;;;;5055154;28;19916;-29
2022/07/08 04:22:49;;;;;;;;;;;;;;;;;;5054439;28;19932;-29
2022/07/08 04:25:15;;;;;;;;;;;;;;;;;;5054628;28;19913;-29
2022/07/08 04:27:41;;;;;;;;;;;;;;;;;;5054593;28;19917;-29
2022/07/08 04:30:07;;;;;;;;;;;;;;;;;;5054662;28;20343;-29
2022/07/08 04:32:33;;;;;;;;;;;;;;;;;;5054439;28;19963;-29
2022/07/08 04:34:59;;;;;;;;;;;;;;;;;;5054832;28;20004;-29
2022/07/08 04:37:25;;;;;;;;;;;;;;;;;;5054391;28;19913;-29
2022/07/08 04:39:52;;;;;;;;;;;;;;;;;;5053468;28;19920;-29
2022/07/08 04:42:18;;;;;;;;;;;;;;;;;;5054487;28;19956;-29
2022/07/08 04:44:44;;;;;;;;;;;;;;;;;;5054501;28;19913;-29
2022/07/08 04:47:10;;;;;;;;;;;;;;;;;;5054451;28;19920;-29
2022/07/08 04:49:36;;;;;;;;;;;;;;;;;;5054563;28;19909;-29
2022/07/08 04:52:02;;;;;;;;;;;;;;;;;;5054712;28;19943;-29
2022/07/08 04:54:28;;;;;;;;;;;;;;;;;;5054653;28;19916;-29
2022/07/08 04:56:54;;;;;;;;;;;;;;;;;;5054684;28;20317;-29
2022/07/08 04:59:21;;;;;;;;;;;;;;;;;;5054310;28;19913;-29
2022/07/08 05:01:47;;;;;;;;;;;;;;;;;;5054611;28;19954;-28
2022/07/08 05:04:13;;;;;;;;;;;;;;;;;;5054106;28;20201;-29
2022/07/08 05:06:39;;;;;;;;;;;;;;;;;;5054361;28;20378;-29
2022/07/08 05:09:05;;;;;;;;;;;;;;;;;;5053337;28;19920;-28
2022/07/08 05:11:31;;;;;;;;;;;;;;;;;;5054901;28;19913;-29
2022/07/08 05:13:57;;;;;;;;;;;;;;;;;;5054488;28;19919;-29
2022/07/08 05:16:23;;;;;;;;;;;;;;;;;;5053356;28;20358;-29
2022/07/08 05:18:49;;;;;;;;;;;;;;;;;;5054180;28;19979;-29
2022/07/08 05:21:15;;;;;;;;;;;;;;;;;;5054477;28;20331;-30
2022/07/08 05:23:41;;;;;;;;;;;;;;;;;;5053972;28;19921;-29
2022/07/08 05:26:07;;;;;;;;;;;;;;;;;;5054847;28;19958;-29
2022/07/08 05:28:33;;;;;;;;;;;;;;;;;;5056933;28;19909;-29
2022/07/08 05:30:59;;;;;;;;;;;;;;;;;;5058003;28;19999;-29
2022/07/08 05:33:25;;;;;;;;;;;;;;;;;;5057606;28;19993;-29
2022/07/08 05:35:51;;;;;;;;;;;;;;;;;;5057670;28;19913;-29
2022/07/08 05:38:17;;;;;;;;;;;;;;;;;;5057558;28;19924;-29
2022/07/08 05:40:43;;;;;;;;;;;;;;;;;;5057830;28;19912;-29
2022/07/08 05:43:10;;;;;;;;;;;;;;;;;;5056287;28;19966;-29
2022/07/08 05:45:36;;;;;;;;;;;;;;;;;;5057332;28;19916;-28
2022/07/08 05:48:02;;;;;;;;;;;;;;;;;;5057400;28;19916;-29
2022/07/08 05:50:28;;;;;;;;;;;;;;;;;;5057263;28;19913;-29
2022/07/08 05:52:53;;;;;;;;;;;;;;;;;;5057221;28;19920;-29
2022/07/08 05:55:19;;;;;;;;;;;;;;;;;;5057291;28;20307;-29
2022/07/08 05:57:45;;;;;;;;;;;;;;;;;;5056985;28;20370;-29
2022/07/08 06:00:11;;;;;;;;;;;;;;;;;;5056949;28;19966;-30
2022/07/08 06:02:37;;;;;;;;;;;;;;;;;;5057185;28;20351;-30
2022/07/08 06:05:04;;;;;;;;;;;;;;;;;;5057150;28;19913;-29
2022/07/08 06:07:32;;;;;;;;;;;;;;;;;;5056885;28;19909;-29
2022/07/08 06:09:58;;;;;;;;;;;;;;;;;;5056647;28;19913;-29
2022/07/08 06:12:24;;;;;;;;;;;;;;;;;;5057014;28;19920;-29
2022/07/08 06:14:50;;;;;;;;;;;;;;;;;;5055763;28;20012;-29
2022/07/08 06:17:16;;;;;;;;;;;;;;;;;;5057105;28;19909;-30
2022/07/08 06:19:42;;;;;;;;;;;;;;;;;;5056660;28;19917;-29
2022/07/08 06:22:09;;;;;;;;;;;;;;;;;;5056638;28;19978;-29
2022/07/08 06:24:35;;;;;;;;;;;;;;;;;;5056778;28;20279;-29
2022/07/08 06:27:01;;;;;;;;;;;;;;;;;;5056898;28;20013;-29
2022/07/08 06:29:27;;;;;;;;;;;;;;;;;;5056598;28;20007;-29
2022/07/08 06:31:53;;;;;;;;;;;;;;;;;;5056658;28;19975;-29
2022/07/08 06:34:19;;;;;;;;;;;;;;;;;;5056516;28;20339;-29
2022/07/08 06:36:45;;;;;;;;;;;;;;;;;;5055976;28;19916;-29
2022/07/08 06:39:11;;;;;;;;;;;;;;;;;;5056176;28;19924;-29
2022/07/08 06:41:37;;;;;;;;;;;;;;;;;;5056526;28;19916;-28
2022/07/08 06:44:03;;;;;;;;;;;;;;;;;;5056234;28;19913;-29
2022/07/08 06:46:29;;;;;;;;;;;;;;;;;;5055334;28;19923;-29
2022/07/08 06:48:55;;;;;;;;;;;;;;;;;;5056449;28;19931;-29
2022/07/08 06:51:21;;;;;;;;;;;;;;;;;;5056214;28;20363;-29
2022/07/08 06:56:31;;;;;;;;;;;;;;;;;;5056287;28;19924;-29
2022/07/08 06:58:57;;;;;;;;;;;;;;;;;;5054943;28;19913;-29
2022/07/08 07:01:23;;;;;;;;;;;;;;;;;;5056236;28;19948;-29
2022/07/08 07:03:49;;;;;;;;;;;;;;;;;;5054817;28;19909;-31
2022/07/08 07:06:15;;;;;;;;;;;;;;;;;;5054848;28;19967;-29
2022/07/08 07:08:42;;;;;;;;;;;;;;;;;;5055833;28;19923;-29
2022/07/08 07:11:08;;;;;;;;;;;;;;;;;;5056043;28;19920;-29
2022/07/08 07:13:34;;;;;;;;;;;;;;;;;;5055554;28;19921;-29
2022/07/08 07:16:00;;;;;;;;;;;;;;;;;;5055691;28;19913;-29
2022/07/08 07:18:26;;;;;;;;;;;;;;;;;;5055592;28;20011;-29
2022/07/08 07:20:52;;;;;;;;;;;;;;;;;;5055666;28;19913;-29
2022/07/08 07:23:18;;;;;;;;;;;;;;;;;;5054370;28;20328;-29
2022/07/08 07:25:44;;;;;;;;;;;;;;;;;;5055502;28;19928;-30
2022/07/08 07:28:10;;;;;;;;;;;;;;;;;;5055498;28;19920;-29
2022/07/08 07:30:36;;;;;;;;;;;;;;;;;;5055991;28;19908;-29
2022/07/08 07:33:02;;;;;;;;;;;;;;;;;;5055302;28;19920;-29
2022/07/08 07:35:28;;;;;;;;;;;;;;;;;;5054374;28;20294;-30
2022/07/08 07:37:54;;;;;;;;;;;;;;;;;;5055095;28;19959;-30
2022/07/08 07:40:20;;;;;;;;;;;;;;;;;;5054230;28;19955;-30
2022/07/08 07:42:46;;;;;;;;;;;;;;;;;;5055196;28;19959;-29
2022/07/08 07:45:12;;;;;;;;;;;;;;;;;;5055096;28;20261;-30
2022/07/08 07:47:38;;;;;;;;;;;;;;;;;;5055237;28;20286;-30
2022/07/08 07:50:04;;;;;;;;;;;;;;;;;;5054666;28;19944;-30
2022/07/08 07:52:30;;;;;;;;;;;;;;;;;;5055444;28;20233;-29
2022/07/08 07:54:56;;;;;;;;;;;;;;;;;;5055327;28;19981;-30
2022/07/08 07:57:22;;;;;;;;;;;;;;;;;;5053984;28;19996;-30
2022/07/08 07:59:48;;;;;;;;;;;;;;;;;;5053860;28;19997;-29
2022/07/08 08:02:14;;;;;;;;;;;;;;;;;;5055174;28;19936;-29
2022/07/08 08:04:41;;;;;;;;;;;;;;;;;;5055033;28;19917;-29
2022/07/08 08:07:07;;;;;;;;;;;;;;;;;;5054905;28;19908;-30
2022/07/08 08:09:33;;;;;;;;;;;;;;;;;;5054977;28;20023;-30
2022/07/08 08:11:59;;;;;;;;;;;;;;;;;;5055077;28;19941;-30
2022/07/08 08:14:25;;;;;;;;;;;;;;;;;;5054867;28;19908;-29
2022/07/08 08:16:52;;;;;;;;;;;;;;;;;;5054773;28;20318;-29
2022/07/08 08:19:18;;;;;;;;;;;;;;;;;;5054922;28;19925;-30
2022/07/08 08:21:44;;;;;;;;;;;;;;;;;;5054967;28;19917;-30
2022/07/08 08:24:09;;;;;;;;;;;;;;;;;;5054460;28;20012;-30
2022/07/08 08:26:35;;;;;;;;;;;;;;;;;;5054603;28;20343;-30
2022/07/08 08:29:01;;;;;;;;;;;;;;;;;;5054757;28;19928;-30
2022/07/08 08:31:28;;;;;;;;;;;;;;;;;;5053573;28;19908;-30
2022/07/08 08:33:54;;;;;;;;;;;;;;;;;;5054400;28;19920;-29
2022/07/08 08:36:21;;;;;;;;;;;;;;;;;;5054757;28;19994;-30
2022/07/08 08:38:50;;;;;;;;;;;;;;;;;;5054412;28;19920;-30
2022/07/08 08:41:16;;;;;;;;;;;;;;;;;;5054502;28;19908;-30
2022/07/08 08:43:42;;;;;;;;;;;;;;;;;;5054848;28;19951;-29
2022/07/08 08:46:08;;;;;;;;;;;;;;;;;;5054584;28;19916;-30
2022/07/08 08:48:34;;;;;;;;;;;;;;;;;;5054524;28;19923;-29
2022/07/08 08:51:02;;;;;;;;;;;;;;;;;;5054631;28;20371;-31
2022/07/08 08:53:29;;;;;;;;;;;;;;;;;;5054789;28;19913;-29
2022/07/08 08:55:55;;;;;;;;;;;;;;;;;;5054503;28;19920;-29
2022/07/08 08:58:21;;;;;;;;;;;;;;;;;;5053430;28;20306;-30
2022/07/08 09:00:47;;;;;;;;;;;;;;;;;;5056096;28;20007;-30
2022/07/08 09:03:13;;;;;;;;;;;;;;;;;;5057138;28;19923;-30
2022/07/08 09:05:39;;;;;;;;;;;;;;;;;;5058169;28;20393;-30
2022/07/08 09:08:05;;;;;;;;;;;;;;;;;;5058494;28;19920;-31
2022/07/08 09:10:43;;;;;;;;;;;;;;;;;;5058243;28;19940;-30
2022/07/08 09:13:10;;;;;;;;;;;;;;;;;;5058220;28;19935;-30
2022/07/08 09:15:36;;;;;;;;;;;;;;;;;;5057806;28;20328;-30
2022/07/08 09:18:02;;;;;;;;;;;;;;;;;;5057977;28;20374;-30
2022/07/08 09:20:28;;;;;;;;;;;;;;;;;;5057039;28;19917;-30
2022/07/08 09:22:54;;;;;;;;;;;;;;;;;;5057891;28;19925;-29
2022/07/08 09:25:20;;;;;;;;;;;;;;;;;;5057861;28;19915;-30
2022/07/08 09:27:47;;;;;;;;;;;;;;;;;;5057729;28;19913;-29
2022/07/08 09:30:15;;;;;;;;;;;;;;;;;;5057383;28;19928;-29
2022/07/08 09:32:41;;;;;;;;;;;;;;;;;;5057641;28;19920;-29
2022/07/08 09:35:07;;;;;;;;;;;;;;;;;;5057515;28;19935;-30
2022/07/08 09:37:33;;;;;;;;;;;;;;;;;;5057674;28;19909;-30
2022/07/08 09:39:59;;;;;;;;;;;;;;;;;;5057353;28;19944;-30
2022/07/08 09:42:25;;;;;;;;;;;;;;;;;;5056900;28;19913;-30
2022/07/08 09:44:52;;;;;;;;;;;;;;;;;;5057333;28;20027;-30
2022/07/08 09:47:18;;;;;;;;;;;;;;;;;;5056992;28;19909;-30
2022/07/08 09:49:44;;;;;;;;;;;;;;;;;;5057172;28;20363;-28
2022/07/08 09:52:11;;;;;;;;;;;;;;;;;;5056954;28;19970;-28
2022/07/08 09:54:37;;;;;;;;;;;;;;;;;;5056961;28;19913;-28
2022/07/08 09:57:03;;;;;;;;;;;;;;;;;;5056940;28;19912;-30
2022/07/08 09:59:29;;;;;;;;;;;;;;;;;;5056799;28;19924;-30
2022/07/08 10:01:55;;;;;;;;;;;;;;;;;;5056785;28;19920;-28
2022/07/08 10:04:24;;;;;;;;;;;;;;;;;;5056942;28;20302;-28
2022/07/08 10:06:50;;;;;;;;;;;;;;;;;;5056664;28;19920;-27
2022/07/08 10:09:16;;;;;;;;;;;;;;;;;;5055556;28;20378;-28
2022/07/08 10:11:42;;;;;;;;;;;;;;;;;;5054707;28;19909;-28
2022/07/08 10:14:08;;;;;;;;;;;;;;;;;;5056327;28;19982;-28
2022/07/08 10:16:34;;;;;;;;;;;;;;;;;;5056745;28;19909;-28
2022/07/08 10:19:01;;;;;;;;;;;;;;;;;;5056821;28;20286;-28
2022/07/08 10:21:27;;;;;;;;;;;;;;;;;;5056622;28;19990;-28
2022/07/08 10:23:53;;;;;;;;;;;;;;;;;;5056499;28;20000;-28
2022/07/08 10:26:19;;;;;;;;;;;;;;;;;;5056495;28;20295;-27
2022/07/08 10:28:45;;;;;;;;;;;;;;;;;;5056350;28;19920;-28
2022/07/08 10:31:11;;;;;;;;;;;;;;;;;;5056721;28;20228;-30
2022/07/08 10:33:37;;;;;;;;;;;;;;;;;;5055447;28;19914;-28
2022/07/08 10:36:03;;;;;;;;;;;;;;;;;;5056367;28;19916;-30
2022/07/08 10:38:29;;;;;;;;;;;;;;;;;;5056238;28;19923;-28
2022/07/08 10:40:55;;;;;;;;;;;;;;;;;;5056326;28;20263;-30
2022/07/08 10:43:21;;;;;;;;;;;;;;;;;;5056301;28;19913;-28
2022/07/08 10:45:48;;;;;;;;;;;;;;;;;;5056113;28;20005;-30
2022/07/08 10:48:14;;;;;;;;;;;;;;;;;;5056320;28;19908;-28
2022/07/08 10:50:46;;;;;;;;;;;;;;;;;;5055972;28;19927;-28
2022/07/08 10:56:05;;;;;;;;;;;;;;;;;;5055991;28;20255;-28
2022/07/08 10:58:31;;;;;;;;;;;;;;;;;;5054935;28;20307;-29
2022/07/08 11:00:57;;;;;;;;;;;;;;;;;;5056202;28;20340;-30
2022/07/08 11:03:23;;;;;;;;;;;;;;;;;;5055924;28;20004;-28
2022/07/08 11:05:49;;;;;;;;;;;;;;;;;;5055865;28;19991;-28
2022/07/08 11:08:15;;;;;;;;;;;;;;;;;;5055900;28;19967;-29
2022/07/08 11:10:42;;;;;;;;;;;;;;;;;;5056095;28;19917;-28
2022/07/08 11:13:08;;;;;;;;;;;;;;;;;;5055785;28;20267;-28
2022/07/08 11:15:34;;;;;;;;;;;;;;;;;;5055755;28;19919;-28
2022/07/08 11:18:00;;;;;;;;;;;;;;;;;;5055689;28;19916;-28
2022/07/08 11:20:26;;;;;;;;;;;;;;;;;;5054770;28;19963;-28
2022/07/08 11:22:52;;;;;;;;;;;;;;;;;;5055075;28;19920;-28
2022/07/08 11:25:19;;;;;;;;;;;;;;;;;;5055760;28;20255;-28
2022/07/08 11:27:45;;;;;;;;;;;;;;;;;;5055349;28;19944;-28
2022/07/08 11:30:11;;;;;;;;;;;;;;;;;;5055486;28;20247;-28
2022/07/08 11:32:36;;;;;;;;;;;;;;;;;;5055499;28;19913;-28
2022/07/08 11:35:03;;;;;;;;;;;;;;;;;;5055263;28;19909;-29
2022/07/08 11:37:32;;;;;;;;;;;;;;;;;;5055246;28;19937;-29
2022/07/08 11:39:58;;;;;;;;;;;;;;;;;;5054295;28;20362;-28
2022/07/08 11:42:24;;;;;;;;;;;;;;;;;;5055328;28;20328;-28
2022/07/08 11:44:50;;;;;;;;;;;;;;;;;;5055453;28;19916;-28
2022/07/08 11:47:17;;;;;;;;;;;;;;;;;;5055168;28;20350;-28
2022/07/08 11:49:43;;;;;;;;;;;;;;;;;;5055155;28;19919;-28
2022/07/08 11:52:09;;;;;;;;;;;;;;;;;;5055351;28;19909;-28
2022/07/08 11:54:35;;;;;;;;;;;;;;;;;;5055059;28;19920;-28
2022/07/08 11:57:01;;;;;;;;;;;;;;;;;;5054079;28;19928;-28
2022/07/08 11:59:27;;;;;;;;;;;;;;;;;;5054856;28;19982;-28
2022/07/08 12:01:53;;;;;;;;;;;;;;;;;;5055010;28;19916;-29
2022/07/08 12:04:19;;;;;;;;;;;;;;;;;;5054833;28;20019;-29
2022/07/08 12:06:46;;;;;;;;;;;;;;;;;;5054797;28;20027;-29
2022/07/08 12:09:12;;;;;;;;;;;;;;;;;;5055153;28;19908;-28
2022/07/08 12:11:38;;;;;;;;;;;;;;;;;;5054764;28;20343;-28
2022/07/08 12:14:04;;;;;;;;;;;;;;;;;;5054649;28;19909;-28
2022/07/08 12:16:30;;;;;;;;;;;;;;;;;;5054538;28;19991;-28
2022/07/08 12:18:56;;;;;;;;;;;;;;;;;;5054769;28;19913;-28
2022/07/08 12:21:22;;;;;;;;;;;;;;;;;;5053630;28;19971;-28
2022/07/08 12:23:48;;;;;;;;;;;;;;;;;;5054301;28;19979;-28
2022/07/08 12:26:14;;;;;;;;;;;;;;;;;;5054963;28;19909;-28
2022/07/08 12:28:40;;;;;;;;;;;;;;;;;;5054727;28;19913;-28
2022/07/08 12:31:06;;;;;;;;;;;;;;;;;;5054660;28;19913;-28
2022/07/08 12:33:32;;;;;;;;;;;;;;;;;;5054874;28;19909;-28
2022/07/08 12:35:58;;;;;;;;;;;;;;;;;;5056813;28;19997;-28
2022/07/08 12:38:24;;;;;;;;;;;;;;;;;;5058579;28;19987;-28
2022/07/08 12:40:50;;;;;;;;;;;;;;;;;;5058756;28;20301;-28
2022/07/08 12:43:16;;;;;;;;;;;;;;;;;;5058251;28;19940;-28
2022/07/08 12:45:42;;;;;;;;;;;;;;;;;;5058530;28;19913;-28
2022/07/08 12:48:08;;;;;;;;;;;;;;;;;;5058800;28;19917;-28
2022/07/08 12:50:34;;;;;;;;;;;;;;;;;;5057411;28;20302;-28
2022/07/08 12:53:00;;;;;;;;;;;;;;;;;;5058506;28;20351;-28
2022/07/08 12:55:26;;;;;;;;;;;;;;;;;;5058281;28;19917;-28
2022/07/08 12:57:52;;;;;;;;;;;;;;;;;;5057982;28;19913;-28
2022/07/08 13:00:18;;;;;;;;;;;;;;;;;;5057875;28;20252;-28
2022/07/08 13:02:44;;;;;;;;;;;;;;;;;;5058202;28;19912;-28
2022/07/08 13:05:10;;;;;;;;;;;;;;;;;;5058007;28;19913;-28
2022/07/08 13:07:36;;;;;;;;;;;;;;;;;;5056973;28;19981;-28
2022/07/08 13:10:02;;;;;;;;;;;;;;;;;;5058290;28;20011;-30
2022/07/08 13:12:28;;;;;;;;;;;;;;;;;;5058166;28;19936;-28
2022/07/08 13:14:54;;;;;;;;;;;;;;;;;;5057829;28;20048;-28
2022/07/08 13:17:20;;;;;;;;;;;;;;;;;;5058093;28;20366;-27
2022/07/08 13:19:46;;;;;;;;;;;;;;;;;;5057629;28;19967;-28
2022/07/08 13:22:12;;;;;;;;;;;;;;;;;;5057739;28;20255;-28
2022/07/08 13:24:38;;;;;;;;;;;;;;;;;;5057609;28;19928;-27
2022/07/08 13:27:04;;;;;;;;;;;;;;;;;;5058646;28;19913;-28
2022/07/08 13:29:30;;;;;;;;;;;;;;;;;;5057721;28;20379;-28
2022/07/08 13:31:56;;;;;;;;;;;;;;;;;;5056583;28;19912;-28
2022/07/08 13:34:22;;;;;;;;;;;;;;;;;;5057668;28;20016;-27
2022/07/08 13:36:48;;;;;;;;;;;;;;;;;;5057850;28;20340;-28
2022/07/08 13:39:14;;;;;;;;;;;;;;;;;;5057491;28;19923;-28
2022/07/08 13:41:40;;;;;;;;;;;;;;;;;;5057535;28;19916;-28
2022/07/08 13:44:06;;;;;;;;;;;;;;;;;;5057395;28;19920;-29
2022/07/08 13:46:32;;;;;;;;;;;;;;;;;;5056425;28;19908;-28
2022/07/08 13:49:00;;;;;;;;;;;;;;;;;;5057457;28;19916;-28
2022/07/08 13:51:26;;;;;;;;;;;;;;;;;;5057271;28;19959;-28
2022/07/08 13:53:53;;;;;;;;;;;;;;;;;;5057079;28;19920;-28
2022/07/08 13:56:19;;;;;;;;;;;;;;;;;;5057483;28;19919;-28
2022/07/08 13:58:45;;;;;;;;;;;;;;;;;;5057077;28;20368;-27
2022/07/08 14:01:11;;;;;;;;;;;;;;;;;;5056101;28;19944;-28
2022/07/08 14:03:37;;;;;;;;;;;;;;;;;;5055921;28;19978;-28
2022/07/08 14:06:03;;;;;;;;;;;;;;;;;;5056093;28;19913;-28
2022/07/08 14:08:32;;;;;;;;;;;;;;;;;;5056527;28;20123;-28
2022/07/08 14:11:00;;;;;;;;;;;;;;;;;;5056920;28;19997;-28
2022/07/08 14:13:26;;;;;;;;;;;;;;;;;;5056760;28;19909;-28
2022/07/08 14:15:52;;;;;;;;;;;;;;;;;;5056709;28;20413;-29
2022/07/08 14:18:18;;;;;;;;;;;;;;;;;;5056997;28;19917;-29
2022/07/08 14:20:44;;;;;;;;;;;;;;;;;;5056738;28;19924;-29
2022/07/08 14:23:10;;;;;;;;;;;;;;;;;;5056654;28;19925;-28
2022/07/08 14:25:36;;;;;;;;;;;;;;;;;;5056927;28;19973;-29
2022/07/08 14:28:02;;;;;;;;;;;;;;;;;;5056877;28;19932;-29
2022/07/08 14:30:28;;;;;;;;;;;;;;;;;;5056585;28;19909;-29
2022/07/08 14:32:54;;;;;;;;;;;;;;;;;;5056645;28;19924;-29
2022/07/08 14:35:20;;;;;;;;;;;;;;;;;;5055500;28;19999;-29
2022/07/08 14:37:46;;;;;;;;;;;;;;;;;;5056481;28;19909;-29
2022/07/08 14:40:12;;;;;;;;;;;;;;;;;;5056343;28;19924;-28
2022/07/08 14:42:39;;;;;;;;;;;;;;;;;;5056591;28;19919;-28
2022/07/08 14:45:05;;;;;;;;;;;;;;;;;;5057056;28;19967;-29
2022/07/08 14:47:31;;;;;;;;;;;;;;;;;;5056286;28;19913;-29
2022/07/08 14:49:57;;;;;;;;;;;;;;;;;;5056504;28;19920;-29
2022/07/08 14:52:23;;;;;;;;;;;;;;;;;;5055992;28;19917;-29
2022/07/08 14:54:49;;;;;;;;;;;;;;;;;;5056138;28;19912;-28
2022/07/08 14:57:15;;;;;;;;;;;;;;;;;;5056116;28;20011;-28
2022/07/08 14:59:41;;;;;;;;;;;;;;;;;;5055499;28;19960;-28
2022/07/08 15:02:07;;;;;;;;;;;;;;;;;;5055855;28;19913;-28
2022/07/08 15:04:33;;;;;;;;;;;;;;;;;;5055967;28;20288;-28
2022/07/08 15:06:59;;;;;;;;;;;;;;;;;;5055910;28;19997;-28
2022/07/08 15:09:25;;;;;;;;;;;;;;;;;;5055992;28;20242;-28
2022/07/08 15:11:51;;;;;;;;;;;;;;;;;;5055833;28;19913;-28
2022/07/08 15:14:17;;;;;;;;;;;;;;;;;;5055715;28;19913;-28
2022/07/08 15:16:43;;;;;;;;;;;;;;;;;;5055726;28;20007;-28
2022/07/08 15:19:10;;;;;;;;;;;;;;;;;;5055631;28;20348;-28
2022/07/08 15:21:36;;;;;;;;;;;;;;;;;;5054651;28;19935;-29
2022/07/08 15:24:02;;;;;;;;;;;;;;;;;;5055287;28;19921;-28
2022/07/08 15:26:29;;;;;;;;;;;;;;;;;;5055527;28;19920;-29
2022/07/08 15:28:54;;;;;;;;;;;;;;;;;;5055705;28;20349;-29
2022/07/08 15:31:21;;;;;;;;;;;;;;;;;;5055471;28;19913;-28
2022/07/08 15:33:47;;;;;;;;;;;;;;;;;;5055357;28;19920;-28
2022/07/08 15:36:13;;;;;;;;;;;;;;;;;;5055346;28;20363;-28
2022/07/08 15:38:38;;;;;;;;;;;;;;;;;;5055615;28;20055;-29
2022/07/08 15:41:05;;;;;;;;;;;;;;;;;;5055364;28;20015;-28
2022/07/08 15:43:31;;;;;;;;;;;;;;;;;;5055148;28;19913;-28
2022/07/08 15:45:57;;;;;;;;;;;;;;;;;;5055246;28;19935;-28
2022/07/08 15:48:23;;;;;;;;;;;;;;;;;;5055220;28;19913;-29
2022/07/08 15:50:49;;;;;;;;;;;;;;;;;;5055155;28;20454;-29
2022/07/08 15:53:15;;;;;;;;;;;;;;;;;;5055299;28;19944;-29
2022/07/08 15:55:41;;;;;;;;;;;;;;;;;;5055272;28;20255;-29
2022/07/08 15:58:07;;;;;;;;;;;;;;;;;;5054951;28;19909;-29
2022/07/08 16:00:33;;;;;;;;;;;;;;;;;;5054066;28;19996;-28
2022/07/08 16:02:59;;;;;;;;;;;;;;;;;;5055006;28;19940;-28
2022/07/08 16:05:25;;;;;;;;;;;;;;;;;;5054905;28;19913;-29
2022/07/08 16:07:51;;;;;;;;;;;;;;;;;;5054847;28;19959;-29
2022/07/08 16:10:17;;;;;;;;;;;;;;;;;;5054244;28;19920;-29
2022/07/08 16:12:43;;;;;;;;;;;;;;;;;;5054865;28;20255;-28
2022/07/08 16:15:09;;;;;;;;;;;;;;;;;;5055188;28;19924;-28
2022/07/08 16:17:35;;;;;;;;;;;;;;;;;;5054881;28;19913;-28
2022/07/08 16:20:01;;;;;;;;;;;;;;;;;;5053859;28;20239;-28
2022/07/08 16:22:27;;;;;;;;;;;;;;;;;;5054794;28;19913;-28
2022/07/08 16:24:53;;;;;;;;;;;;;;;;;;5054622;28;19921;-29
2022/07/08 16:27:20;;;;;;;;;;;;;;;;;;5055015;28;19909;-29
2022/07/08 16:29:46;;;;;;;;;;;;;;;;;;5054749;28;19913;-29
2022/07/08 16:32:12;;;;;;;;;;;;;;;;;;5054723;28;19931;-28
2022/07/08 16:34:38;;;;;;;;;;;;;;;;;;5054696;28;19920;-28
2022/07/08 16:37:04;;;;;;;;;;;;;;;;;;5054911;28;19909;-28
2022/07/08 16:39:32;;;;;;;;;;;;;;;;;;5054559;28;20394;-28
2022/07/08 16:41:58;;;;;;;;;;;;;;;;;;5054851;28;19971;-28
2022/07/08 16:44:24;;;;;;;;;;;;;;;;;;5054620;28;20287;-28
2022/07/08 16:46:50;;;;;;;;;;;;;;;;;;5054909;28;19921;-29
2022/07/08 16:49:16;;;;;;;;;;;;;;;;;;5054607;28;19909;-28